Time;durP1;ratioP1;P1;durP2;ratioP2;P2;SDS_P1;SDS_P2;PMS_P1;PMS_P2;Temp;Humidity;BMP_temperature;BMP_pressure;BME280_temperature;BME280_humidity;BME280_pressure;Samples;Min_cycle;Max_cycle;Signal;HPM_P1;HPM_P2
2023/12/09 00:01:53;;;;;;;24.73;17.40;;;;;;;;;;5093016;28;20195;-68
2023/12/09 00:04:20;;;;;;;18.25;15.85;;;;;;;;;;5091781;28;20222;-68
2023/12/09 00:06:48;;;;;;;17.67;15.82;;;;;;;;;;5092901;28;20211;-68
2023/12/09 00:09:15;;;;;;;21.27;16.45;;;;;;;;;;5092765;28;20219;-68
2023/12/09 00:11:42;;;;;;;18.10;15.02;;;;;;;;;;5092720;28;20215;-68
2023/12/09 00:14:08;;;;;;;19.48;15.38;;;;;;;;;;5092843;28;20282;-68
2023/12/09 00:16:35;;;;;;;17.80;14.93;;;;;;;;;;5092668;28;20219;-68
2023/12/09 00:19:01;;;;;;;16.65;14.85;;;;;;;;;;5092584;28;20214;-68
2023/12/09 00:21:27;;;;;;;21.48;16.75;;;;;;;;;;5092399;28;20238;-68
2023/12/09 00:23:55;;;;;;;22.23;16.75;;;;;;;;;;5092484;28;20196;-68
2023/12/09 00:26:21;;;;;;;25.65;17.05;;;;;;;;;;5092720;28;20276;-68
2023/12/09 00:28:47;;;;;;;21.52;16.58;;;;;;;;;;5092358;28;20250;-69
2023/12/09 00:31:14;;;;;;;18.38;15.70;;;;;;;;;;5092538;28;20206;-69
2023/12/09 00:33:40;;;;;;;18.00;14.60;;;;;;;;;;5092309;28;20230;-69
2023/12/09 00:36:07;;;;;;;19.13;16.05;;;;;;;;;;5092384;28;20294;-69
2023/12/09 00:38:33;;;;;;;19.98;15.35;;;;;;;;;;5091997;28;20575;-69
2023/12/09 00:41:01;;;;;;;17.95;14.23;;;;;;;;;;5092091;28;20191;-69
2023/12/09 00:43:27;;;;;;;20.40;15.10;;;;;;;;;;5092344;28;20223;-69
2023/12/09 00:45:53;;;;;;;15.88;14.18;;;;;;;;;;5092023;28;20233;-69
2023/12/09 00:48:19;;;;;;;16.77;13.95;;;;;;;;;;5091988;28;20249;-69
2023/12/09 00:50:46;;;;;;;15.20;13.15;;;;;;;;;;5092188;28;20257;-69
2023/12/09 00:53:12;;;;;;;16.35;13.80;;;;;;;;;;5092098;28;20676;-69
2023/12/09 00:55:38;;;;;;;16.83;13.15;;;;;;;;;;5091520;28;20652;-69
2023/12/09 00:58:06;;;;;;;16.52;13.73;;;;;;;;;;5092365;28;20200;-69
2023/12/09 01:00:32;;;;;;;16.50;14.02;;;;;;;;;;5092246;28;20245;-69
2023/12/09 01:02:58;;;;;;;17.75;14.25;;;;;;;;;;5091938;28;20200;-69
2023/12/09 01:05:25;;;;;;;16.13;12.73;;;;;;;;;;5091845;28;20211;-69
2023/12/09 01:07:51;;;;;;;18.70;14.48;;;;;;;;;;5091623;28;20203;-69
2023/12/09 01:10:17;;;;;;;16.33;14.13;;;;;;;;;;5092398;28;20200;-69
2023/12/09 01:12:43;;;;;;;18.33;14.90;;;;;;;;;;5091773;28;20248;-69
2023/12/09 01:15:11;;;;;;;17.48;13.60;;;;;;;;;;5092105;28;20216;-69
2023/12/09 01:17:38;;;;;;;17.52;14.52;;;;;;;;;;5095930;28;20199;-69
2023/12/09 01:20:04;;;;;;;18.00;13.88;;;;;;;;;;5096016;28;20225;-69
2023/12/09 01:22:30;;;;;;;14.45;12.50;;;;;;;;;;5095629;28;20233;-69
2023/12/09 01:24:57;;;;;;;16.52;14.02;;;;;;;;;;5095532;28;20226;-69
2023/12/09 01:27:23;;;;;;;16.90;12.95;;;;;;;;;;5096554;28;20200;-69
2023/12/09 01:29:49;;;;;;;15.07;13.60;;;;;;;;;;5113081;22;20227;-68
2023/12/09 01:32:17;;;;;;;15.65;14.07;;;;;;;;;;5108625;28;20195;-68
2023/12/09 01:34:44;;;;;;;16.83;13.55;;;;;;;;;;5106526;28;20218;-67
2023/12/09 01:37:10;;;;;;;17.42;13.50;;;;;;;;;;5103861;28;20203;-67
2023/12/09 01:39:38;;;;;;;15.25;13.65;;;;;;;;;;5104113;28;20211;-67
2023/12/09 01:42:04;;;;;;;16.02;14.23;;;;;;;;;;5107423;28;20195;-68
2023/12/09 01:44:30;;;;;;;14.40;12.93;;;;;;;;;;5107176;27;20245;-67
2023/12/09 01:46:57;;;;;;;15.60;12.98;;;;;;;;;;5104638;28;20200;-67
2023/12/09 01:49:24;;;;;;;14.35;12.80;;;;;;;;;;5103718;28;20196;-67
2023/12/09 01:51:51;;;;;;;14.23;12.63;;;;;;;;;;5105578;28;20257;-67
2023/12/09 01:54:17;;;;;;;15.55;13.95;;;;;;;;;;5107271;28;20199;-67
2023/12/09 01:56:43;;;;;;;14.50;13.00;;;;;;;;;;5106052;28;20223;-67
2023/12/09 01:59:10;;;;;;;16.05;13.00;;;;;;;;;;5103452;28;20290;-67
2023/12/09 02:01:36;;;;;;;15.27;13.60;;;;;;;;;;5111724;28;20203;-67
2023/12/09 02:04:03;;;;;;;15.45;12.30;;;;;;;;;;5103299;28;20254;-67
2023/12/09 02:06:30;;;;;;;16.05;13.23;;;;;;;;;;5103232;28;20690;-66
2023/12/09 02:08:57;;;;;;;17.58;14.07;;;;;;;;;;5105685;28;20203;-67
2023/12/09 02:11:28;;;;;;;17.48;13.80;;;;;;;;;;5106731;27;20218;-67
2023/12/09 02:13:57;;;;;;;15.18;13.52;;;;;;;;;;5104511;28;20295;-67
2023/12/09 02:16:27;;;;;;;15.07;13.40;;;;;;;;;;5103079;28;20208;-68
2023/12/09 02:18:54;;;;;;;16.98;13.82;;;;;;;;;;5105025;28;20196;-67
2023/12/09 02:21:21;;;;;;;21.95;14.93;;;;;;;;;;5106632;27;20195;-67
2023/12/09 02:23:48;;;;;;;14.23;12.70;;;;;;;;;;5105606;28;20256;-67
2023/12/09 02:26:17;;;;;;;16.58;13.13;;;;;;;;;;5103079;28;20225;-67
2023/12/09 02:28:46;;;;;;;15.68;13.98;;;;;;;;;;5101998;28;20602;-67
2023/12/09 02:31:14;;;;;;;14.02;12.13;;;;;;;;;;5105965;27;20247;-67
2023/12/09 02:33:43;;;;;;;13.88;12.48;;;;;;;;;;5106590;28;20199;-67
2023/12/09 02:36:10;;;;;;;13.75;12.43;;;;;;;;;;5095067;28;20212;-67
2023/12/09 02:38:37;;;;;;;13.07;11.70;;;;;;;;;;5102766;28;20253;-67
2023/12/09 02:41:06;;;;;;;15.05;13.45;;;;;;;;;;5105522;28;20683;-67
2023/12/09 02:43:33;;;;;;;14.18;12.75;;;;;;;;;;5106061;27;20252;-67
2023/12/09 02:45:59;;;;;;;15.65;12.68;;;;;;;;;;5103628;28;20276;-66
2023/12/09 02:48:25;;;;;;;18.38;13.10;;;;;;;;;;5102664;28;20199;-67
2023/12/09 02:50:51;;;;;;;14.10;12.20;;;;;;;;;;5103684;28;20200;-67
2023/12/09 02:53:17;;;;;;;17.00;13.07;;;;;;;;;;5105798;28;20191;-67
2023/12/09 02:55:44;;;;;;;13.43;11.68;;;;;;;;;;5105686;28;20219;-67
2023/12/09 02:58:12;;;;;;;17.35;12.82;;;;;;;;;;5102086;28;20671;-67
2023/12/09 03:00:38;;;;;;;17.30;12.82;;;;;;;;;;5102463;28;20204;-67
2023/12/09 03:03:04;;;;;;;13.80;12.35;;;;;;;;;;5105323;28;20207;-67
2023/12/09 03:05:31;;;;;;;13.38;12.02;;;;;;;;;;5105567;28;20219;-67
2023/12/09 03:07:57;;;;;;;13.13;11.43;;;;;;;;;;5103965;28;20199;-67
2023/12/09 03:10:23;;;;;;;14.77;11.73;;;;;;;;;;5102011;28;20249;-68
2023/12/09 03:12:49;;;;;;;14.93;12.02;;;;;;;;;;5102251;28;20257;-67
2023/12/09 03:15:17;;;;;;;13.40;11.13;;;;;;;;;;5105477;28;20215;-68
2023/12/09 03:17:43;;;;;;;13.55;11.40;;;;;;;;;;5105783;27;20202;-67
2023/12/09 03:20:10;;;;;;;15.07;12.35;;;;;;;;;;5101889;28;20274;-67
2023/12/09 03:22:36;;;;;;;14.30;12.18;;;;;;;;;;5101883;28;20207;-67
2023/12/09 03:25:02;;;;;;;15.38;12.57;;;;;;;;;;5104274;28;20239;-67
2023/12/09 03:27:29;;;;;;;14.70;12.05;;;;;;;;;;5105032;28;20198;-67
2023/12/09 03:29:55;;;;;;;13.27;11.98;;;;;;;;;;5103897;28;20202;-67
2023/12/09 03:32:23;;;;;;;14.52;12.55;;;;;;;;;;5101869;28;20200;-68
2023/12/09 03:34:49;;;;;;;14.25;12.75;;;;;;;;;;5101954;28;20227;-67
2023/12/09 03:37:15;;;;;;;15.80;13.13;;;;;;;;;;5105112;28;20605;-67
2023/12/09 03:39:41;;;;;;;18.50;14.00;;;;;;;;;;5104642;28;20496;-67
2023/12/09 03:42:08;;;;;;;16.13;13.52;;;;;;;;;;5101789;28;20635;-67
2023/12/09 03:44:34;;;;;;;19.50;13.38;;;;;;;;;;5101618;28;20225;-67
2023/12/09 03:47:00;;;;;;;18.48;13.45;;;;;;;;;;5102853;28;20703;-67
2023/12/09 03:49:28;;;;;;;20.38;15.35;;;;;;;;;;5104813;28;20199;-67
2023/12/09 03:51:54;;;;;;;18.45;15.00;;;;;;;;;;5103855;28;20195;-67
2023/12/09 03:54:20;;;;;;;18.58;14.13;;;;;;;;;;5100765;28;20199;-67
2023/12/09 03:56:46;;;;;;;18.25;13.80;;;;;;;;;;5100900;28;20336;-67
2023/12/09 03:59:13;;;;;;;17.80;14.07;;;;;;;;;;5103659;28;20199;-67
2023/12/09 04:01:46;;;;;;;14.70;12.82;;;;;;;;;;5103937;28;20199;-67
2023/12/09 04:04:12;;;;;;;14.63;12.65;;;;;;;;;;5100547;28;20717;-67
2023/12/09 04:06:40;;;;;;;14.02;12.43;;;;;;;;;;5100400;28;20227;-67
2023/12/09 04:09:06;;;;;;;13.63;11.68;;;;;;;;;;5102645;28;20236;-67
2023/12/09 04:11:32;;;;;;;13.77;12.38;;;;;;;;;;5101019;28;20686;-68
2023/12/09 04:13:58;;;;;;;12.00;10.65;;;;;;;;;;5099904;28;20817;-67
2023/12/09 04:16:24;;;;;;;15.82;11.40;;;;;;;;;;5097300;28;20764;-67
2023/12/09 04:18:50;;;;;;;13.60;11.20;;;;;;;;;;5097549;28;20200;-67
2023/12/09 04:21:17;;;;;;;15.02;11.25;;;;;;;;;;5089192;28;20200;-67
2023/12/09 04:23:45;;;;;;;13.68;11.60;;;;;;;;;;5097226;28;20248;-67
2023/12/09 04:26:11;;;;;;;14.02;11.02;;;;;;;;;;5103129;28;20223;-67
2023/12/09 04:28:37;;;;;;;14.63;11.48;;;;;;;;;;5103982;28;20207;-68
2023/12/09 04:31:04;;;;;;;14.63;11.40;;;;;;;;;;5102197;27;20252;-67
2023/12/09 04:33:30;;;;;;;18.33;11.38;;;;;;;;;;5100563;28;20257;-67
2023/12/09 04:35:56;;;;;;;16.63;12.38;;;;;;;;;;5100858;28;20273;-67
2023/12/09 04:38:23;;;;;;;16.52;12.55;;;;;;;;;;5103712;28;20556;-68
2023/12/09 04:40:50;;;;;;;13.13;11.48;;;;;;;;;;5104068;28;20199;-67
2023/12/09 04:43:16;;;;;;;17.13;12.20;;;;;;;;;;5100526;28;20203;-67
2023/12/09 04:45:43;;;;;;;15.70;11.65;;;;;;;;;;5100251;28;20219;-67
2023/12/09 04:48:09;;;;;;;12.73;11.32;;;;;;;;;;5102357;28;20256;-67
2023/12/09 04:50:35;;;;;;;12.73;11.40;;;;;;;;;;5103212;28;20211;-67
2023/12/09 04:53:01;;;;;;;16.27;11.40;;;;;;;;;;5102667;28;20207;-67
2023/12/09 04:55:28;;;;;;;14.10;11.98;;;;;;;;;;5100395;28;20367;-67
2023/12/09 04:57:55;;;;;;;12.15;10.90;;;;;;;;;;5100098;28;20553;-67
2023/12/09 05:00:22;;;;;;;11.38;10.20;;;;;;;;;;5092090;28;20614;-67
2023/12/09 05:02:49;;;;;;;12.30;10.52;;;;;;;;;;5100335;28;20195;-67
2023/12/09 05:05:15;;;;;;;12.15;10.40;;;;;;;;;;5102601;28;20643;-67
2023/12/09 05:07:42;;;;;;;15.00;10.77;;;;;;;;;;5103546;28;20288;-67
2023/12/09 05:10:12;;;;;;;16.10;10.85;;;;;;;;;;5101616;28;20728;-67
2023/12/09 05:12:38;;;;;;;12.93;10.38;;;;;;;;;;5100127;28;20215;-67
2023/12/09 05:15:06;;;;;;;13.32;10.57;;;;;;;;;;5101067;28;20216;-67
2023/12/09 05:17:33;;;;;;;13.68;9.68;;;;;;;;;;5103365;28;20616;-67
2023/12/09 05:19:59;;;;;;;11.98;9.15;;;;;;;;;;5102760;28;20728;-67
2023/12/09 05:22:25;;;;;;;11.05;9.38;;;;;;;;;;5099940;28;20656;-66
2023/12/09 05:24:52;;;;;;;10.50;9.02;;;;;;;;;;5099803;28;20220;-67
2023/12/09 05:27:18;;;;;;;10.27;9.23;;;;;;;;;;5102512;28;20576;-67
2023/12/09 05:29:44;;;;;;;15.43;9.77;;;;;;;;;;5103232;28;20736;-67
2023/12/09 05:32:12;;;;;;;10.40;8.95;;;;;;;;;;5101362;28;20613;-67
2023/12/09 05:34:38;;;;;;;11.82;9.50;;;;;;;;;;5099891;28;20196;-67
2023/12/09 05:37:04;;;;;;;10.45;9.30;;;;;;;;;;5100606;28;20621;-67
2023/12/09 05:39:31;;;;;;;10.05;8.98;;;;;;;;;;5103213;28;20290;-67
2023/12/09 05:41:57;;;;;;;12.98;9.82;;;;;;;;;;5103245;28;20203;-67
2023/12/09 05:44:23;;;;;;;12.73;10.10;;;;;;;;;;5099568;28;20200;-66
2023/12/09 05:46:50;;;;;;;10.05;8.60;;;;;;;;;;5099775;28;20220;-67
2023/12/09 05:49:18;;;;;;;12.48;8.32;;;;;;;;;;5102120;28;20262;-67
2023/12/09 05:51:44;;;;;;;9.75;8.57;;;;;;;;;;5103271;28;20278;-67
2023/12/09 05:54:10;;;;;;;9.50;8.60;;;;;;;;;;5101598;28;20589;-67
2023/12/09 05:56:37;;;;;;;11.93;9.70;;;;;;;;;;5099555;28;20302;-67
2023/12/09 05:59:03;;;;;;;22.95;14.48;;;;;;;;;;5099806;28;20199;-67
2023/12/09 06:01:30;;;;;;;26.77;17.00;;;;;;;;;;5103123;28;20690;-67
2023/12/09 06:03:56;;;;;;;18.85;13.43;;;;;;;;;;5106980;28;20209;-67
2023/12/09 06:06:24;;;;;;;23.70;16.73;;;;;;;;;;5103806;28;20223;-67
2023/12/09 06:08:50;;;;;;;20.73;14.73;;;;;;;;;;5103342;28;20207;-67
2023/12/09 06:11:16;;;;;;;14.07;10.88;;;;;;;;;;5107035;28;20219;-67
2023/12/09 06:13:43;;;;;;;11.68;9.82;;;;;;;;;;5116296;28;20203;-67
2023/12/09 06:16:09;;;;;;;12.75;9.80;;;;;;;;;;5115601;28;20689;-67
2023/12/09 06:18:35;;;;;;;13.77;10.13;;;;;;;;;;5113366;28;20264;-67
2023/12/09 06:21:01;;;;;;;11.95;9.25;;;;;;;;;;5115256;28;20232;-67
2023/12/09 06:23:29;;;;;;;13.15;10.20;;;;;;;;;;5102462;28;20686;-67
2023/12/09 06:25:55;;;;;;;11.80;9.07;;;;;;;;;;5109578;28;20227;-67
2023/12/09 06:28:21;;;;;;;16.10;9.85;;;;;;;;;;5112487;28;20200;-67
2023/12/09 06:30:48;;;;;;;10.45;9.43;;;;;;;;;;5113361;28;20207;-67
2023/12/09 06:33:14;;;;;;;15.32;9.90;;;;;;;;;;5110597;28;20206;-67
2023/12/09 06:35:40;;;;;;;10.63;9.52;;;;;;;;;;5102920;28;20219;-67
2023/12/09 06:38:06;;;;;;;10.95;9.55;;;;;;;;;;5104554;28;20257;-68
2023/12/09 06:40:34;;;;;;;11.05;9.82;;;;;;;;;;5107528;28;20248;-68
2023/12/09 06:43:00;;;;;;;12.75;9.02;;;;;;;;;;5108679;28;20468;-59
2023/12/09 06:45:26;;;;;;;11.93;9.00;;;;;;;;;;5101580;28;20223;-59
2023/12/09 06:47:54;;;;;;;11.57;8.82;;;;;;;;;;5109244;28;20238;-60
2023/12/09 06:50:21;;;;;;;10.13;7.97;;;;;;;;;;5106865;28;20267;-59
2023/12/09 06:52:47;;;;;;;10.57;8.07;;;;;;;;;;5105943;28;20272;-59
2023/12/09 06:55:14;;;;;;;9.60;7.47;;;;;;;;;;5106442;28;20250;-60
2023/12/09 06:57:41;;;;;;;8.85;7.93;;;;;;;;;;5109605;28;20187;-60
2023/12/09 07:00:08;;;;;;;8.32;7.43;;;;;;;;;;5109372;28;20260;-59
2023/12/09 07:02:34;;;;;;;8.48;7.60;;;;;;;;;;5106046;28;20287;-59
2023/12/09 07:05:01;;;;;;;13.45;9.05;;;;;;;;;;5106596;28;20263;-59
2023/12/09 07:07:27;;;;;;;9.50;8.50;;;;;;;;;;5109500;28;20212;-59
2023/12/09 07:09:55;;;;;;;10.98;8.65;;;;;;;;;;5109418;28;20199;-60
2023/12/09 07:12:22;;;;;;;13.32;9.07;;;;;;;;;;5107013;28;20231;-59
2023/12/09 07:14:50;;;;;;;11.10;9.82;;;;;;;;;;5105540;28;20245;-60
2023/12/09 07:17:16;;;;;;;14.80;9.82;;;;;;;;;;5107589;28;20252;-60
2023/12/09 07:19:42;;;;;;;12.35;10.02;;;;;;;;;;5109904;27;20249;-59
2023/12/09 07:22:08;;;;;;;11.73;10.32;;;;;;;;;;5109858;28;20275;-60
2023/12/09 07:24:35;;;;;;;15.63;10.07;;;;;;;;;;5106515;28;20210;-59
2023/12/09 07:27:01;;;;;;;14.88;10.55;;;;;;;;;;5106604;28;20227;-60
2023/12/09 07:29:27;;;;;;;12.45;10.60;;;;;;;;;;5109115;28;20204;-60
2023/12/09 07:31:55;;;;;;;11.77;10.15;;;;;;;;;;5110480;28;20207;-60
2023/12/09 07:34:21;;;;;;;15.98;10.80;;;;;;;;;;5108648;28;20224;-60
2023/12/09 07:36:47;;;;;;;12.07;10.70;;;;;;;;;;5107123;28;20222;-60
2023/12/09 07:39:13;;;;;;;15.18;11.25;;;;;;;;;;5106700;28;20207;-60
2023/12/09 07:41:41;;;;;;;13.18;10.80;;;;;;;;;;5108937;28;20284;-60
2023/12/09 07:44:07;;;;;;;12.50;10.68;;;;;;;;;;5108619;28;20377;-60
2023/12/09 07:46:33;;;;;;;13.27;11.13;;;;;;;;;;5105835;28;20323;-60
2023/12/09 07:49:01;;;;;;;13.68;10.90;;;;;;;;;;5105976;28;20730;-60
2023/12/09 07:51:27;;;;;;;13.73;10.95;;;;;;;;;;5108163;28;20580;-60
2023/12/09 07:53:54;;;;;;;14.15;11.13;;;;;;;;;;5109643;28;20228;-60
2023/12/09 07:56:20;;;;;;;13.23;11.73;;;;;;;;;;5108327;28;20714;-60
2023/12/09 07:58:46;;;;;;;13.13;11.63;;;;;;;;;;5105195;28;20196;-59
2023/12/09 08:01:13;;;;;;;13.30;11.02;;;;;;;;;;5104618;28;20207;-60
2023/12/09 08:03:39;;;;;;;14.55;11.60;;;;;;;;;;5107578;28;20252;-60
2023/12/09 08:06:07;;;;;;;13.52;11.45;;;;;;;;;;5107678;28;20267;-59
2023/12/09 08:08:33;;;;;;;15.70;11.80;;;;;;;;;;5105647;28;20306;-59
2023/12/09 08:11:01;;;;;;;15.00;11.73;;;;;;;;;;5105507;28;20332;-60
2023/12/09 08:13:27;;;;;;;13.80;11.60;;;;;;;;;;5107863;28;20250;-60
2023/12/09 08:15:53;;;;;;;17.75;12.73;;;;;;;;;;5109866;28;20215;-60
2023/12/09 08:18:19;;;;;;;17.33;12.10;;;;;;;;;;5107532;28;20214;-59
2023/12/09 08:20:46;;;;;;;16.17;12.10;;;;;;;;;;5104753;28;20233;-60
2023/12/09 08:23:13;;;;;;;17.38;12.60;;;;;;;;;;5105623;28;20199;-59
2023/12/09 08:25:42;;;;;;;16.90;12.13;;;;;;;;;;5095573;28;20224;-60
2023/12/09 08:28:09;;;;;;;14.23;11.50;;;;;;;;;;5104500;28;20779;-59
2023/12/09 08:30:35;;;;;;;19.60;12.82;;;;;;;;;;5107881;28;20264;-60
2023/12/09 08:33:01;;;;;;;18.48;12.73;;;;;;;;;;5108690;27;20260;-60
2023/12/09 08:38:32;;;;;;;16.77;12.68;;;;;;;;;;5105051;28;20272;-60
2023/12/09 08:40:58;;;;;;;15.73;12.55;;;;;;;;;;5102899;28;20200;-60
2023/12/09 08:43:25;;;;;;;19.45;14.45;;;;;;;;;;5102361;28;20203;-60
2023/12/09 08:45:51;;;;;;;16.27;13.98;;;;;;;;;;5105988;28;20237;-60
2023/12/09 08:48:18;;;;;;;20.90;15.48;;;;;;;;;;5104557;28;20241;-60
2023/12/09 08:50:44;;;;;;;15.07;12.80;;;;;;;;;;5105314;28;20195;-60
2023/12/09 08:53:10;;;;;;;18.42;12.80;;;;;;;;;;5106056;28;20195;-60
2023/12/09 08:55:38;;;;;;;17.17;12.25;;;;;;;;;;5104283;28;20619;-60
2023/12/09 08:58:04;;;;;;;17.67;13.10;;;;;;;;;;5105133;28;20664;-59
2023/12/09 09:00:30;;;;;;;20.17;13.18;;;;;;;;;;5104029;28;20256;-58
2023/12/09 09:02:58;;;;;;;16.60;12.02;;;;;;;;;;5105664;28;20462;-60
2023/12/09 09:05:24;;;;;;;15.43;11.57;;;;;;;;;;5105627;28;20223;-60
2023/12/09 09:07:51;;;;;;;14.50;10.95;;;;;;;;;;5104980;28;20265;-60
2023/12/09 09:10:18;;;;;;;13.65;10.70;;;;;;;;;;5106901;28;20298;-60
2023/12/09 09:12:46;;;;;;;13.60;10.68;;;;;;;;;;5098263;28;20718;-60
2023/12/09 09:15:13;;;;;;;14.27;10.75;;;;;;;;;;5105352;28;20212;-60
2023/12/09 09:17:40;;;;;;;10.45;9.43;;;;;;;;;;5105714;28;20273;-60
2023/12/09 09:20:07;;;;;;;10.88;8.80;;;;;;;;;;5106442;28;20227;-60
2023/12/09 09:22:33;;;;;;;11.05;8.80;;;;;;;;;;5107527;28;20196;-60
2023/12/09 09:24:59;;;;;;;12.45;9.10;;;;;;;;;;5108149;28;20423;-60
2023/12/09 09:27:26;;;;;;;12.98;10.02;;;;;;;;;;5115415;28;20644;-60
2023/12/09 09:29:54;;;;;;;16.05;10.73;;;;;;;;;;5101341;28;20290;-60
2023/12/09 09:32:20;;;;;;;18.02;10.57;;;;;;;;;;5108522;28;20580;-60
2023/12/09 09:34:47;;;;;;;14.02;9.20;;;;;;;;;;5096873;28;20215;-60
2023/12/09 09:37:14;;;;;;;17.80;11.25;;;;;;;;;;5105802;28;20218;-60
2023/12/09 09:39:40;;;;;;;19.00;10.82;;;;;;;;;;5111870;28;20222;-60
2023/12/09 09:42:10;;;;;;;22.27;12.70;;;;;;;;;;5112683;28;20248;-60
2023/12/09 09:44:38;;;;;;;17.77;11.20;;;;;;;;;;5110723;28;20256;-60
2023/12/09 09:47:07;;;;;;;10.77;7.47;;;;;;;;;;5110116;28;20200;-60
2023/12/09 09:49:34;;;;;;;13.30;8.68;;;;;;;;;;5111564;28;20191;-60
2023/12/09 09:52:02;;;;;;;9.82;8.27;;;;;;;;;;5112582;28;20659;-60
2023/12/09 09:54:30;;;;;;;12.18;8.25;;;;;;;;;;5113287;28;20252;-60
2023/12/09 09:56:58;;;;;;;10.65;8.25;;;;;;;;;;5110533;28;20230;-60
2023/12/09 09:59:24;;;;;;;11.18;8.23;;;;;;;;;;5111271;28;20196;-60
2023/12/09 10:01:51;;;;;;;10.70;8.77;;;;;;;;;;5114846;28;20195;-60
2023/12/09 10:04:18;;;;;;;10.45;8.48;;;;;;;;;;5115008;28;20267;-60
2023/12/09 10:06:44;;;;;;;14.50;8.10;;;;;;;;;;5111066;28;20245;-60
2023/12/09 10:09:11;;;;;;;9.55;8.15;;;;;;;;;;5109567;28;20212;-60
2023/12/09 10:11:37;;;;;;;10.15;8.13;;;;;;;;;;5112030;28;20215;-60
2023/12/09 10:14:04;;;;;;;9.55;7.18;;;;;;;;;;5113914;28;20248;-60
2023/12/09 10:16:30;;;;;;;10.50;7.50;;;;;;;;;;5112204;28;20219;-60
2023/12/09 10:18:57;;;;;;;10.82;7.07;;;;;;;;;;5110477;28;20188;-60
2023/12/09 10:21:24;;;;;;;10.82;7.43;;;;;;;;;;5110675;28;20215;-60
2023/12/09 10:23:51;;;;;;;9.40;7.45;;;;;;;;;;5102491;28;20196;-60
2023/12/09 10:26:18;;;;;;;8.63;7.75;;;;;;;;;;5109535;28;20302;-60
2023/12/09 10:28:44;;;;;;;10.85;7.88;;;;;;;;;;5112980;28;20226;-60
2023/12/09 10:31:11;;;;;;;10.13;7.50;;;;;;;;;;5115498;28;20200;-60
2023/12/09 10:33:37;;;;;;;9.23;7.10;;;;;;;;;;5111124;28;20300;-60
2023/12/09 10:36:03;;;;;;;8.65;7.63;;;;;;;;;;5113953;28;20237;-60
2023/12/09 10:38:31;;;;;;;8.65;7.10;;;;;;;;;;5114457;27;20526;-60
2023/12/09 10:40:57;;;;;;;7.93;6.97;;;;;;;;;;5111998;28;20219;-60
2023/12/09 10:43:24;;;;;;;6.88;6.22;;;;;;;;;;5119189;28;20200;-60
2023/12/09 10:45:50;;;;;;;9.07;5.95;;;;;;;;;;5111750;28;20215;-60
2023/12/09 10:48:16;;;;;;;6.43;5.80;;;;;;;;;;5110406;28;20208;-60
2023/12/09 10:50:44;;;;;;;6.05;5.45;;;;;;;;;;5112999;28;20229;-60
2023/12/09 10:53:10;;;;;;;4.88;4.57;;;;;;;;;;5115583;28;20196;-60
2023/12/09 10:55:39;;;;;;;5.75;5.22;;;;;;;;;;5112456;28;20280;-60
2023/12/09 10:58:06;;;;;;;5.25;4.60;;;;;;;;;;5106553;28;20260;-60
2023/12/09 11:00:33;;;;;;;5.30;4.80;;;;;;;;;;5112416;28;20694;-60
2023/12/09 11:02:59;;;;;;;5.30;4.80;;;;;;;;;;5109006;28;20608;-60
2023/12/09 11:05:25;;;;;;;6.00;5.40;;;;;;;;;;5111392;28;20223;-60
2023/12/09 11:07:53;;;;;;;7.38;5.43;;;;;;;;;;5111686;28;20242;-60
2023/12/09 11:10:19;;;;;;;9.18;5.82;;;;;;;;;;5111488;28;20204;-60
2023/12/09 11:12:49;;;;;;;6.00;5.20;;;;;;;;;;5113909;28;20557;-60
2023/12/09 11:15:19;;;;;;;5.70;5.20;;;;;;;;;;5114427;28;20526;-60
2023/12/09 11:17:47;;;;;;;5.20;4.80;;;;;;;;;;5113266;28;20195;-60
2023/12/09 11:20:14;;;;;;;5.85;5.25;;;;;;;;;;5111042;28;20191;-60
2023/12/09 11:22:41;;;;;;;5.70;4.93;;;;;;;;;;5110225;28;20252;-60
2023/12/09 11:25:08;;;;;;;5.30;4.68;;;;;;;;;;5105388;28;20219;-60
2023/12/09 11:27:35;;;;;;;5.72;5.20;;;;;;;;;;5113129;28;20202;-60
2023/12/09 11:30:03;;;;;;;7.18;5.57;;;;;;;;;;5108571;28;20223;-60
2023/12/09 11:32:30;;;;;;;6.45;4.72;;;;;;;;;;5109542;28;20652;-60
2023/12/09 11:34:57;;;;;;;5.55;5.05;;;;;;;;;;5109229;28;20280;-60
2023/12/09 11:37:24;;;;;;;8.52;5.28;;;;;;;;;;5109565;28;20208;-60
2023/12/09 11:39:51;;;;;;;6.63;5.18;;;;;;;;;;5116552;28;20202;-60
2023/12/09 11:42:19;;;;;;;6.40;5.55;;;;;;;;;;5106390;28;20198;-60
2023/12/09 11:44:46;;;;;;;6.00;5.20;;;;;;;;;;5111047;28;20219;-60
2023/12/09 11:47:13;;;;;;;4.95;4.50;;;;;;;;;;5111677;28;20442;-60
2023/12/09 11:49:40;;;;;;;6.10;4.95;;;;;;;;;;5112920;28;20218;-60
2023/12/09 11:52:07;;;;;;;4.80;4.50;;;;;;;;;;5111658;28;20191;-60
2023/12/09 11:54:33;;;;;;;4.97;4.47;;;;;;;;;;5113558;28;20207;-60
2023/12/09 11:57:00;;;;;;;5.18;4.78;;;;;;;;;;5101831;28;20223;-60
2023/12/09 11:59:26;;;;;;;4.63;4.22;;;;;;;;;;5110364;28;20196;-60
2023/12/09 12:01:52;;;;;;;4.90;4.43;;;;;;;;;;5118764;28;20263;-60
2023/12/09 12:04:20;;;;;;;4.38;4.07;;;;;;;;;;5110422;28;20203;-60
2023/12/09 12:06:46;;;;;;;3.85;3.65;;;;;;;;;;5112605;28;20221;-60
2023/12/09 12:09:12;;;;;;;3.20;3.00;;;;;;;;;;5117278;28;20216;-60
2023/12/09 12:11:39;;;;;;;2.42;2.33;;;;;;;;;;5110303;28;20199;-60
2023/12/09 12:14:05;;;;;;;2.58;2.30;;;;;;;;;;5110928;28;20200;-60
2023/12/09 12:16:31;;;;;;;2.35;2.25;;;;;;;;;;5109086;28;20239;-60
2023/12/09 12:18:57;;;;;;;1.83;1.83;;;;;;;;;;5110306;28;20245;-60
2023/12/09 12:21:25;;;;;;;10.00;5.65;;;;;;;;;;5102979;28;20213;-61
2023/12/09 12:23:51;;;;;;;28.67;14.63;;;;;;;;;;5096084;28;20269;-61
2023/12/09 12:26:18;;;;;;;6.40;4.35;;;;;;;;;;5099084;28;20220;-61
2023/12/09 12:28:47;;;;;;;2.00;1.90;;;;;;;;;;5096270;28;20309;-61
2023/12/09 12:31:14;;;;;;;2.15;1.70;;;;;;;;;;5086583;28;20253;-61
2023/12/09 12:33:40;;;;;;;1.88;1.77;;;;;;;;;;5085645;28;20234;-60
2023/12/09 12:36:07;;;;;;;1.60;1.40;;;;;;;;;;5095594;28;20707;-60
2023/12/09 12:38:35;;;;;;;1.42;1.40;;;;;;;;;;5078732;28;20204;-60
2023/12/09 12:41:02;;;;;;;2.00;1.85;;;;;;;;;;5087485;28;20320;-60
2023/12/09 12:43:30;;;;;;;1.67;1.65;;;;;;;;;;5097760;28;20227;-61
2023/12/09 12:45:58;;;;;;;1.40;1.40;;;;;;;;;;5087050;28;20610;-61
2023/12/09 12:48:24;;;;;;;1.77;1.67;;;;;;;;;;5082163;28;20293;-60
2023/12/09 12:50:50;;;;;;;1.95;1.88;;;;;;;;;;5086133;28;20208;-61
2023/12/09 12:53:17;;;;;;;1.85;1.75;;;;;;;;;;5075874;28;20621;-60
2023/12/09 12:55:45;;;;;;;1.70;1.70;;;;;;;;;;5083333;28;20708;-60
2023/12/09 12:58:12;;;;;;;1.83;1.73;;;;;;;;;;5085220;28;20202;-61
2023/12/09 13:00:39;;;;;;;2.13;2.03;;;;;;;;;;5099040;28;20545;-61
2023/12/09 13:03:06;;;;;;;2.03;1.92;;;;;;;;;;5099908;28;20270;-61
2023/12/09 13:05:33;;;;;;;2.35;2.17;;;;;;;;;;5106190;28;20242;-61
2023/12/09 13:07:59;;;;;;;2.15;2.00;;;;;;;;;;5111411;28;20207;-61
2023/12/09 13:10:26;;;;;;;2.65;2.55;;;;;;;;;;5110051;28;20256;-61
2023/12/09 13:12:54;;;;;;;2.67;2.47;;;;;;;;;;5110590;28;20199;-61
2023/12/09 13:15:21;;;;;;;3.47;2.28;;;;;;;;;;5107388;28;20227;-61
2023/12/09 13:17:47;;;;;;;2.63;2.42;;;;;;;;;;5106774;28;20195;-61
2023/12/09 13:20:13;;;;;;;2.45;2.28;;;;;;;;;;5111617;28;20194;-61
2023/12/09 13:22:40;;;;;;;2.15;2.05;;;;;;;;;;5110137;28;20247;-61
2023/12/09 13:25:07;;;;;;;2.95;2.15;;;;;;;;;;5105709;28;20223;-61
2023/12/09 13:27:33;;;;;;;2.85;2.65;;;;;;;;;;5106865;28;20216;-61
2023/12/09 13:30:04;;;;;;;2.33;2.22;;;;;;;;;;5115058;28;20359;-61
2023/12/09 13:32:30;;;;;;;2.13;2.03;;;;;;;;;;5105625;28;20722;-61
2023/12/09 13:34:56;;;;;;;2.13;2.03;;;;;;;;;;5108803;28;20706;-61
2023/12/09 13:37:22;;;;;;;2.25;2.13;;;;;;;;;;5107053;28;20192;-61
2023/12/09 13:39:49;;;;;;;1.80;1.80;;;;;;;;;;5105996;28;20253;-61
2023/12/09 13:42:15;;;;;;;2.30;2.20;;;;;;;;;;5109768;28;20199;-61
2023/12/09 13:44:41;;;;;;;2.30;2.05;;;;;;;;;;5110610;28;20219;-60
2023/12/09 13:47:09;;;;;;;1.67;1.67;;;;;;;;;;5110780;28;20195;-61
2023/12/09 13:49:35;;;;;;;1.90;1.90;;;;;;;;;;5110346;28;20211;-60
2023/12/09 13:52:02;;;;;;;3.80;1.90;;;;;;;;;;5108130;28;20621;-60
2023/12/09 13:54:28;;;;;;;2.38;2.28;;;;;;;;;;5106417;28;20192;-60
2023/12/09 13:56:54;;;;;;;2.22;2.13;;;;;;;;;;5107925;28;20208;-60
2023/12/09 13:59:20;;;;;;;2.17;2.08;;;;;;;;;;5103757;28;20191;-60
2023/12/09 14:01:48;;;;;;;2.17;2.08;;;;;;;;;;5110815;28;20210;-60
2023/12/09 14:04:16;;;;;;;2.53;2.42;;;;;;;;;;5104861;28;20230;-60
2023/12/09 14:06:42;;;;;;;3.22;2.50;;;;;;;;;;5114658;28;20604;-60
2023/12/09 14:09:09;;;;;;;2.35;2.25;;;;;;;;;;5103871;28;20231;-60
2023/12/09 14:11:35;;;;;;;2.53;2.42;;;;;;;;;;5104070;28;20196;-60
2023/12/09 14:14:01;;;;;;;2.80;2.70;;;;;;;;;;5108449;28;20203;-60
2023/12/09 14:16:28;;;;;;;2.95;2.60;;;;;;;;;;5112386;28;20712;-60
2023/12/09 14:18:54;;;;;;;2.03;2.03;;;;;;;;;;5107659;28;20203;-60
2023/12/09 14:21:21;;;;;;;2.70;2.58;;;;;;;;;;5107327;28;20207;-60
2023/12/09 14:23:47;;;;;;;3.47;3.17;;;;;;;;;;5109161;28;20207;-60
2023/12/09 14:26:13;;;;;;;2.78;2.58;;;;;;;;;;5097783;28;20216;-60